sensor_id;sensor_type;location;lat;lon;timestamp;temperature;humidity
44435;DHT22;30138;20.964;105.830;2023-02-28T00:03:46;22.90;86.50
44435;DHT22;30138;20.964;105.830;2023-02-28T00:08:56;22.90;86.50
44435;DHT22;30138;20.964;105.830;2023-02-28T00:14:04;22.90;86.60
44435;DHT22;30138;20.964;105.830;2023-02-28T00:19:12;22.90;86.60
44435;DHT22;30138;20.964;105.830;2023-02-28T00:24:22;22.90;86.70
44435;DHT22;30138;20.964;105.830;2023-02-28T00:29:30;22.90;86.90
44435;DHT22;30138;20.964;105.830;2023-02-28T00:34:38;22.90;87.00
44435;DHT22;30138;20.964;105.830;2023-02-28T00:39:47;22.90;87.10
44435;DHT22;30138;20.964;105.830;2023-02-28T00:44:55;22.90;87.20
44435;DHT22;30138;20.964;105.830;2023-02-28T00:50:04;22.90;87.30
44435;DHT22;30138;20.964;105.830;2023-02-28T00:55:15;22.90;87.50
44435;DHT22;30138;20.964;105.830;2023-02-28T01:00:24;22.90;87.60
44435;DHT22;30138;20.964;105.830;2023-02-28T01:05:33;22.90;87.70
44435;DHT22;30138;20.964;105.830;2023-02-28T01:10:43;22.90;88.30
44435;DHT22;30138;20.964;105.830;2023-02-28T01:15:52;22.90;89.00
44435;DHT22;30138;20.964;105.830;2023-02-28T01:21:04;23.00;89.90
44435;DHT22;30138;20.964;105.830;2023-02-28T01:26:14;23.10;90.20
44435;DHT22;30138;20.964;105.830;2023-02-28T01:31:24;23.20;89.00
44435;DHT22;30138;20.964;105.830;2023-02-28T01:36:32;23.10;87.90
44435;DHT22;30138;20.964;105.830;2023-02-28T01:41:42;23.00;87.70
44435;DHT22;30138;20.964;105.830;2023-02-28T01:46:49;23.00;87.70
44435;DHT22;30138;20.964;105.830;2023-02-28T01:51:58;23.00;87.90
44435;DHT22;30138;20.964;105.830;2023-02-28T01:57:09;23.10;88.40
44435;DHT22;30138;20.964;105.830;2023-02-28T02:02:20;23.10;88.20
44435;DHT22;30138;20.964;105.830;2023-02-28T02:07:31;23.10;87.50
44435;DHT22;30138;20.964;105.830;2023-02-28T02:13:03;23.10;87.20
44435;DHT22;30138;20.964;105.830;2023-02-28T02:18:25;23.00;86.90
44435;DHT22;30138;20.964;105.830;2023-02-28T02:29:54;23.00;86.70
44435;DHT22;30138;20.964;105.830;2023-02-28T02:35:26;23.00;86.80
44435;DHT22;30138;20.964;105.830;2023-02-28T02:40:38;23.10;86.70
44435;DHT22;30138;20.964;105.830;2023-02-28T02:45:52;23.10;86.40
44435;DHT22;30138;20.964;105.830;2023-02-28T02:51:06;23.20;86.20
44435;DHT22;30138;20.964;105.830;2023-02-28T02:56:20;23.20;85.70
44435;DHT22;30138;20.964;105.830;2023-02-28T03:01:31;23.20;85.60
44435;DHT22;30138;20.964;105.830;2023-02-28T03:06:41;23.30;85.60
44435;DHT22;30138;20.964;105.830;2023-02-28T03:11:50;23.40;85.60
44435;DHT22;30138;20.964;105.830;2023-02-28T03:17:16;23.50;85.60
44435;DHT22;30138;20.964;105.830;2023-02-28T03:23:01;23.50;85.30
44435;DHT22;30138;20.964;105.830;2023-02-28T03:28:27;23.60;85.00
44435;DHT22;30138;20.964;105.830;2023-02-28T03:33:41;23.60;84.50
44435;DHT22;30138;20.964;105.830;2023-02-28T03:39:01;23.60;84.60
44435;DHT22;30138;20.964;105.830;2023-02-28T03:44:13;23.70;84.40
44435;DHT22;30138;20.964;105.830;2023-02-28T03:49:26;23.80;83.70
44435;DHT22;30138;20.964;105.830;2023-02-28T03:54:40;23.80;83.40
44435;DHT22;30138;20.964;105.830;2023-02-28T03:59:52;23.80;83.00
44435;DHT22;30138;20.964;105.830;2023-02-28T04:05:02;23.80;83.40
44435;DHT22;30138;20.964;105.830;2023-02-28T04:10:12;23.80;83.60
44435;DHT22;30138;20.964;105.830;2023-02-28T04:15:20;23.80;83.30
44435;DHT22;30138;20.964;105.830;2023-02-28T04:20:31;23.80;83.50
44435;DHT22;30138;20.964;105.830;2023-02-28T04:25:42;23.80;83.60
44435;DHT22;30138;20.964;105.830;2023-02-28T04:30:56;23.80;83.40
44435;DHT22;30138;20.964;105.830;2023-02-28T04:36:06;23.80;83.30
44435;DHT22;30138;20.964;105.830;2023-02-28T04:41:17;23.80;82.50
44435;DHT22;30138;20.964;105.830;2023-02-28T04:46:26;23.80;81.90
44435;DHT22;30138;20.964;105.830;2023-02-28T04:51:34;23.80;82.40
44435;DHT22;30138;20.964;105.830;2023-02-28T04:56:44;23.80;83.00
44435;DHT22;30138;20.964;105.830;2023-02-28T05:01:53;23.80;82.70
44435;DHT22;30138;20.964;105.830;2023-02-28T05:07:01;23.80;81.60
44435;DHT22;30138;20.964;105.830;2023-02-28T05:12:10;23.90;81.70
44435;DHT22;30138;20.964;105.830;2023-02-28T05:17:19;23.90;81.40
44435;DHT22;30138;20.964;105.830;2023-02-28T05:22:28;23.90;81.40
44435;DHT22;30138;20.964;105.830;2023-02-28T05:27:38;24.00;81.30
44435;DHT22;30138;20.964;105.830;2023-02-28T05:32:51;24.00;81.10
44435;DHT22;30138;20.964;105.830;2023-02-28T05:37:59;24.00;80.50
44435;DHT22;30138;20.964;105.830;2023-02-28T05:43:11;24.00;80.20
44435;DHT22;30138;20.964;105.830;2023-02-28T05:48:19;24.00;80.30
44435;DHT22;30138;20.964;105.830;2023-02-28T05:53:26;24.10;80.80
44435;DHT22;30138;20.964;105.830;2023-02-28T05:58:36;24.20;80.30
44435;DHT22;30138;20.964;105.830;2023-02-28T06:03:44;24.20;80.10
44435;DHT22;30138;20.964;105.830;2023-02-28T06:08:51;24.30;79.80
44435;DHT22;30138;20.964;105.830;2023-02-28T06:14:01;24.30;79.70
44435;DHT22;30138;20.964;105.830;2023-02-28T06:19:10;24.30;79.70
44435;DHT22;30138;20.964;105.830;2023-02-28T06:24:21;24.30;79.70
44435;DHT22;30138;20.964;105.830;2023-02-28T06:29:34;24.40;80.20
44435;DHT22;30138;20.964;105.830;2023-02-28T06:34:43;24.40;80.50
44435;DHT22;30138;20.964;105.830;2023-02-28T06:39:50;24.40;80.40
44435;DHT22;30138;20.964;105.830;2023-02-28T06:45:00;24.50;80.40
44435;DHT22;30138;20.964;105.830;2023-02-28T06:50:13;24.50;80.20
44435;DHT22;30138;20.964;105.830;2023-02-28T06:55:23;24.60;79.50
44435;DHT22;30138;20.964;105.830;2023-02-28T07:00:32;24.60;80.00
44435;DHT22;30138;20.964;105.830;2023-02-28T07:05:40;24.70;79.90
44435;DHT22;30138;20.964;105.830;2023-02-28T07:10:47;24.70;80.00
44435;DHT22;30138;20.964;105.830;2023-02-28T07:16:02;24.70;79.00
44435;DHT22;30138;20.964;105.830;2023-02-28T07:21:16;24.80;79.10
44435;DHT22;30138;20.964;105.830;2023-02-28T07:26:24;24.80;79.20
44435;DHT22;30138;20.964;105.830;2023-02-28T07:31:33;24.80;78.80
44435;DHT22;30138;20.964;105.830;2023-02-28T07:36:42;24.90;78.60
44435;DHT22;30138;20.964;105.830;2023-02-28T07:41:51;24.90;78.90
44435;DHT22;30138;20.964;105.830;2023-02-28T07:47:04;24.90;78.90
44435;DHT22;30138;20.964;105.830;2023-02-28T07:52:12;24.90;78.80
44435;DHT22;30138;20.964;105.830;2023-02-28T07:57:19;25.00;78.30
44435;DHT22;30138;20.964;105.830;2023-02-28T08:02:29;25.00;77.90
44435;DHT22;30138;20.964;105.830;2023-02-28T08:07:39;25.00;77.90
44435;DHT22;30138;20.964;105.830;2023-02-28T08:12:47;25.00;78.40
44435;DHT22;30138;20.964;105.830;2023-02-28T08:17:58;25.00;79.00
44435;DHT22;30138;20.964;105.830;2023-02-28T08:23:06;25.00;77.50
44435;DHT22;30138;20.964;105.830;2023-02-28T08:28:13;25.00;76.80
44435;DHT22;30138;20.964;105.830;2023-02-28T08:33:23;25.00;77.00
44435;DHT22;30138;20.964;105.830;2023-02-28T08:38:31;25.00;77.10
44435;DHT22;30138;20.964;105.830;2023-02-28T08:43:39;25.00;77.40
44435;DHT22;30138;20.964;105.830;2023-02-28T08:48:52;25.00;77.60
44435;DHT22;30138;20.964;105.830;2023-02-28T08:54:03;25.00;77.80
44435;DHT22;30138;20.964;105.830;2023-02-28T08:59:10;25.00;77.80
44435;DHT22;30138;20.964;105.830;2023-02-28T09:04:20;25.00;78.20
44435;DHT22;30138;20.964;105.830;2023-02-28T09:09:28;25.00;78.50
44435;DHT22;30138;20.964;105.830;2023-02-28T09:14:35;25.00;78.50
44435;DHT22;30138;20.964;105.830;2023-02-28T09:19:47;25.10;78.60
44435;DHT22;30138;20.964;105.830;2023-02-28T09:24:56;25.00;79.20
44435;DHT22;30138;20.964;105.830;2023-02-28T09:30:07;25.00;79.80
44435;DHT22;30138;20.964;105.830;2023-02-28T09:35:17;25.00;79.90
44435;DHT22;30138;20.964;105.830;2023-02-28T09:40:27;25.00;80.10
44435;DHT22;30138;20.964;105.830;2023-02-28T09:45:36;25.00;80.20
44435;DHT22;30138;20.964;105.830;2023-02-28T09:50:51;25.00;80.50
44435;DHT22;30138;20.964;105.830;2023-02-28T09:56:10;25.00;80.30
44435;DHT22;30138;20.964;105.830;2023-02-28T10:01:23;25.00;80.50
44435;DHT22;30138;20.964;105.830;2023-02-28T10:06:39;25.00;80.90
44435;DHT22;30138;20.964;105.830;2023-02-28T10:11:53;25.00;81.30
44435;DHT22;30138;20.964;105.830;2023-02-28T10:17:08;25.00;81.00
44435;DHT22;30138;20.964;105.830;2023-02-28T10:22:24;25.00;81.10
44435;DHT22;30138;20.964;105.830;2023-02-28T10:27:36;25.00;81.60
44435;DHT22;30138;20.964;105.830;2023-02-28T10:32:49;24.90;82.30
44435;DHT22;30138;20.964;105.830;2023-02-28T10:38:00;24.90;82.90
44435;DHT22;30138;20.964;105.830;2023-02-28T10:43:21;24.90;83.10
44435;DHT22;30138;20.964;105.830;2023-02-28T10:48:36;24.80;83.50
44435;DHT22;30138;20.964;105.830;2023-02-28T10:53:55;24.80;84.10
44435;DHT22;30138;20.964;105.830;2023-02-28T10:59:20;24.80;84.50
44435;DHT22;30138;20.964;105.830;2023-02-28T11:04:37;24.90;84.60
44435;DHT22;30138;20.964;105.830;2023-02-28T11:09:48;24.90;84.80
44435;DHT22;30138;20.964;105.830;2023-02-28T11:14:58;24.90;84.80
44435;DHT22;30138;20.964;105.830;2023-02-28T11:20:20;24.90;84.80
44435;DHT22;30138;20.964;105.830;2023-02-28T11:25:34;24.90;84.90
44435;DHT22;30138;20.964;105.830;2023-02-28T11:30:43;24.90;84.90
44435;DHT22;30138;20.964;105.830;2023-02-28T11:35:51;24.90;84.90
44435;DHT22;30138;20.964;105.830;2023-02-28T11:41:31;24.90;84.80
44435;DHT22;30138;20.964;105.830;2023-02-28T11:46:54;24.90;84.80
44435;DHT22;30138;20.964;105.830;2023-02-28T11:52:33;24.90;85.80
44435;DHT22;30138;20.964;105.830;2023-02-28T11:58:17;25.00;85.40
44435;DHT22;30138;20.964;105.830;2023-02-28T12:03:42;25.00;85.60
44435;DHT22;30138;20.964;105.830;2023-02-28T12:09:02;25.00;85.70
44435;DHT22;30138;20.964;105.830;2023-02-28T12:14:53;25.00;85.70
44435;DHT22;30138;20.964;105.830;2023-02-28T12:20:14;24.90;85.90
44435;DHT22;30138;20.964;105.830;2023-02-28T12:25:50;24.90;85.50
44435;DHT22;30138;20.964;105.830;2023-02-28T12:31:11;24.90;85.40
44435;DHT22;30138;20.964;105.830;2023-02-28T12:36:24;24.90;85.30
44435;DHT22;30138;20.964;105.830;2023-02-28T12:41:39;24.90;86.00
44435;DHT22;30138;20.964;105.830;2023-02-28T12:46:52;24.90;85.60
44435;DHT22;30138;20.964;105.830;2023-02-28T12:52:04;24.80;85.70
44435;DHT22;30138;20.964;105.830;2023-02-28T12:57:18;24.80;86.10
44435;DHT22;30138;20.964;105.830;2023-02-28T13:02:58;24.80;86.20
44435;DHT22;30138;20.964;105.830;2023-02-28T13:08:51;24.80;86.40
44435;DHT22;30138;20.964;105.830;2023-02-28T13:14:25;24.80;86.60
44435;DHT22;30138;20.964;105.830;2023-02-28T13:19:39;24.70;86.70
44435;DHT22;30138;20.964;105.830;2023-02-28T13:24:50;24.70;86.90
44435;DHT22;30138;20.964;105.830;2023-02-28T13:30:00;24.80;87.20
44435;DHT22;30138;20.964;105.830;2023-02-28T13:35:36;24.70;87.20
44435;DHT22;30138;20.964;105.830;2023-02-28T13:40:50;24.70;87.20
44435;DHT22;30138;20.964;105.830;2023-02-28T13:46:14;24.70;87.70
44435;DHT22;30138;20.964;105.830;2023-02-28T13:51:52;24.70;87.90
44435;DHT22;30138;20.964;105.830;2023-02-28T13:57:17;24.80;88.00
44435;DHT22;30138;20.964;105.830;2023-02-28T14:02:45;24.70;88.20
44435;DHT22;30138;20.964;105.830;2023-02-28T14:08:12;24.70;88.30
44435;DHT22;30138;20.964;105.830;2023-02-28T14:13:42;24.70;88.40
44435;DHT22;30138;20.964;105.830;2023-02-28T14:18:57;24.70;88.70
44435;DHT22;30138;20.964;105.830;2023-02-28T14:24:28;24.70;88.90
44435;DHT22;30138;20.964;105.830;2023-02-28T14:30:15;24.70;89.00
44435;DHT22;30138;20.964;105.830;2023-02-28T14:36:03;24.70;89.10
44435;DHT22;30138;20.964;105.830;2023-02-28T14:41:22;24.70;89.10
44435;DHT22;30138;20.964;105.830;2023-02-28T14:46:37;24.70;89.30
44435;DHT22;30138;20.964;105.830;2023-02-28T14:51:48;24.70;89.40
44435;DHT22;30138;20.964;105.830;2023-02-28T14:56:59;24.70;89.40
44435;DHT22;30138;20.964;105.830;2023-02-28T15:02:18;24.70;89.70
44435;DHT22;30138;20.964;105.830;2023-02-28T15:07:27;24.80;89.80
44435;DHT22;30138;20.964;105.830;2023-02-28T15:12:39;24.70;90.00
44435;DHT22;30138;20.964;105.830;2023-02-28T15:17:49;24.80;90.00
44435;DHT22;30138;20.964;105.830;2023-02-28T15:23:04;24.80;90.10
44435;DHT22;30138;20.964;105.830;2023-02-28T15:28:31;24.80;90.20
44435;DHT22;30138;20.964;105.830;2023-02-28T15:33:38;24.80;90.60
44435;DHT22;30138;20.964;105.830;2023-02-28T15:39:16;24.80;90.30
44435;DHT22;30138;20.964;105.830;2023-02-28T15:44:30;24.80;90.30
44435;DHT22;30138;20.964;105.830;2023-02-28T15:49:47;24.80;90.30
44435;DHT22;30138;20.964;105.830;2023-02-28T15:54:56;24.80;90.20
44435;DHT22;30138;20.964;105.830;2023-02-28T16:00:10;24.80;90.20
44435;DHT22;30138;20.964;105.830;2023-02-28T16:05:25;24.80;90.10
44435;DHT22;30138;20.964;105.830;2023-02-28T16:10:35;24.80;90.10
44435;DHT22;30138;20.964;105.830;2023-02-28T16:15:45;24.70;90.00
44435;DHT22;30138;20.964;105.830;2023-02-28T16:20:54;24.70;90.00
44435;DHT22;30138;20.964;105.830;2023-02-28T16:26:05;24.70;90.00
44435;DHT22;30138;20.964;105.830;2023-02-28T16:31:15;24.70;90.00
44435;DHT22;30138;20.964;105.830;2023-02-28T16:36:24;24.70;90.00
44435;DHT22;30138;20.964;105.830;2023-02-28T16:41:32;24.60;90.00
44435;DHT22;30138;20.964;105.830;2023-02-28T16:46:43;24.60;90.00
44435;DHT22;30138;20.964;105.830;2023-02-28T16:51:51;24.60;90.00
44435;DHT22;30138;20.964;105.830;2023-02-28T16:56:59;24.60;90.00
44435;DHT22;30138;20.964;105.830;2023-02-28T17:02:12;24.60;90.40
44435;DHT22;30138;20.964;105.830;2023-02-28T17:07:20;24.50;90.00
44435;DHT22;30138;20.964;105.830;2023-02-28T17:12:31;24.60;90.10
44435;DHT22;30138;20.964;105.830;2023-02-28T17:17:41;24.50;90.10
44435;DHT22;30138;20.964;105.830;2023-02-28T17:22:50;24.50;90.10
44435;DHT22;30138;20.964;105.830;2023-02-28T17:27:58;24.50;90.20
44435;DHT22;30138;20.964;105.830;2023-02-28T17:33:07;24.50;90.20
44435;DHT22;30138;20.964;105.830;2023-02-28T17:38:16;24.50;90.20
44435;DHT22;30138;20.964;105.830;2023-02-28T17:43:26;24.50;90.20
44435;DHT22;30138;20.964;105.830;2023-02-28T17:48:35;24.40;90.20
44435;DHT22;30138;20.964;105.830;2023-02-28T17:53:44;24.40;90.20
44435;DHT22;30138;20.964;105.830;2023-02-28T17:58:53;24.50;90.20
44435;DHT22;30138;20.964;105.830;2023-02-28T18:04:03;24.40;90.20
44435;DHT22;30138;20.964;105.830;2023-02-28T18:09:11;24.40;90.20
44435;DHT22;30138;20.964;105.830;2023-02-28T18:14:20;24.40;90.30
44435;DHT22;30138;20.964;105.830;2023-02-28T18:19:30;24.40;90.20
44435;DHT22;30138;20.964;105.830;2023-02-28T18:24:38;24.40;90.30
44435;DHT22;30138;20.964;105.830;2023-02-28T18:29:46;24.40;90.30
44435;DHT22;30138;20.964;105.830;2023-02-28T18:34:56;24.40;90.40
44435;DHT22;30138;20.964;105.830;2023-02-28T18:40:05;24.30;90.40
44435;DHT22;30138;20.964;105.830;2023-02-28T18:45:14;24.30;90.40
44435;DHT22;30138;20.964;105.830;2023-02-28T18:50:23;24.30;90.40
44435;DHT22;30138;20.964;105.830;2023-02-28T18:55:32;24.30;90.40
44435;DHT22;30138;20.964;105.830;2023-02-28T19:00:39;24.30;90.50
44435;DHT22;30138;20.964;105.830;2023-02-28T19:05:49;24.30;90.80
44435;DHT22;30138;20.964;105.830;2023-02-28T19:11:06;24.30;90.60
44435;DHT22;30138;20.964;105.830;2023-02-28T19:16:16;24.30;90.60
44435;DHT22;30138;20.964;105.830;2023-02-28T19:21:26;24.30;90.70
44435;DHT22;30138;20.964;105.830;2023-02-28T19:26:34;24.20;90.80
44435;DHT22;30138;20.964;105.830;2023-02-28T19:31:42;24.20;90.80
44435;DHT22;30138;20.964;105.830;2023-02-28T19:36:53;24.20;90.80
44435;DHT22;30138;20.964;105.830;2023-02-28T19:42:02;24.20;90.80
44435;DHT22;30138;20.964;105.830;2023-02-28T19:47:09;24.20;90.90
44435;DHT22;30138;20.964;105.830;2023-02-28T19:52:19;24.20;90.90
44435;DHT22;30138;20.964;105.830;2023-02-28T19:57:27;24.20;90.90
44435;DHT22;30138;20.964;105.830;2023-02-28T20:02:34;24.10;91.00
44435;DHT22;30138;20.964;105.830;2023-02-28T20:07:43;24.10;91.00
44435;DHT22;30138;20.964;105.830;2023-02-28T20:12:52;24.10;91.00
44435;DHT22;30138;20.964;105.830;2023-02-28T20:17:59;24.10;91.10
44435;DHT22;30138;20.964;105.830;2023-02-28T20:23:09;24.10;91.10
44435;DHT22;30138;20.964;105.830;2023-02-28T20:28:17;24.00;91.20
44435;DHT22;30138;20.964;105.830;2023-02-28T20:33:24;24.00;91.20
44435;DHT22;30138;20.964;105.830;2023-02-28T20:38:34;24.00;91.30
44435;DHT22;30138;20.964;105.830;2023-02-28T20:43:44;23.90;91.40
44435;DHT22;30138;20.964;105.830;2023-02-28T20:48:52;23.90;91.40
44435;DHT22;30138;20.964;105.830;2023-02-28T20:54:01;23.90;91.80
44435;DHT22;30138;20.964;105.830;2023-02-28T20:59:10;23.90;91.50
44435;DHT22;30138;20.964;105.830;2023-02-28T21:04:19;23.90;91.60
44435;DHT22;30138;20.964;105.830;2023-02-28T21:09:29;23.90;91.60
44435;DHT22;30138;20.964;105.830;2023-02-28T21:14:37;23.90;91.60
44435;DHT22;30138;20.964;105.830;2023-02-28T21:19:45;23.80;91.60
44435;DHT22;30138;20.964;105.830;2023-02-28T21:24:55;23.80;91.60
44435;DHT22;30138;20.964;105.830;2023-02-28T21:30:02;23.80;91.70
44435;DHT22;30138;20.964;105.830;2023-02-28T21:35:11;23.80;91.70
44435;DHT22;30138;20.964;105.830;2023-02-28T21:40:21;23.80;91.80
44435;DHT22;30138;20.964;105.830;2023-02-28T21:45:28;23.80;91.80
44435;DHT22;30138;20.964;105.830;2023-02-28T21:50:35;23.80;91.80
44435;DHT22;30138;20.964;105.830;2023-02-28T21:55:45;23.70;91.90
44435;DHT22;30138;20.964;105.830;2023-02-28T22:00:52;23.70;91.90
44435;DHT22;30138;20.964;105.830;2023-02-28T22:06:00;23.70;92.00
44435;DHT22;30138;20.964;105.830;2023-02-28T22:11:17;23.60;92.00
44435;DHT22;30138;20.964;105.830;2023-02-28T22:16:27;23.60;92.10
44435;DHT22;30138;20.964;105.830;2023-02-28T22:21:37;23.60;92.10
44435;DHT22;30138;20.964;105.830;2023-02-28T22:26:48;23.60;92.20
44435;DHT22;30138;20.964;105.830;2023-02-28T22:31:57;23.60;92.20
44435;DHT22;30138;20.964;105.830;2023-02-28T22:37:05;23.60;92.20
44435;DHT22;30138;20.964;105.830;2023-02-28T22:42:13;23.60;92.20
44435;DHT22;30138;20.964;105.830;2023-02-28T22:47:21;23.60;92.20
44435;DHT22;30138;20.964;105.830;2023-02-28T22:52:30;23.60;92.60
44435;DHT22;30138;20.964;105.830;2023-02-28T22:57:40;23.50;92.30
44435;DHT22;30138;20.964;105.830;2023-02-28T23:02:47;23.50;92.30
44435;DHT22;30138;20.964;105.830;2023-02-28T23:07:55;23.50;92.30
44435;DHT22;30138;20.964;105.830;2023-02-28T23:13:05;23.50;92.30
44435;DHT22;30138;20.964;105.830;2023-02-28T23:18:13;23.50;92.40
44435;DHT22;30138;20.964;105.830;2023-02-28T23:23:21;23.50;92.50
44435;DHT22;30138;20.964;105.830;2023-02-28T23:28:34;23.60;92.40
44435;DHT22;30138;20.964;105.830;2023-02-28T23:33:42;23.60;92.40
44435;DHT22;30138;20.964;105.830;2023-02-28T23:38:50;23.60;92.40
44435;DHT22;30138;20.964;105.830;2023-02-28T23:44:01;23.50;92.50
44435;DHT22;30138;20.964;105.830;2023-02-28T23:49:09;23.50;92.50
44435;DHT22;30138;20.964;105.830;2023-02-28T23:54:18;23.50;92.60
44435;DHT22;30138;20.964;105.830;2023-02-28T23:59:27;23.50;92.60
